Time;durP1;ratioP1;P1;durP2;ratioP2;P2;SDS_P1;SDS_P2;PMS_P1;PMS_P2;Temp;Humidity;BMP_temperature;BMP_pressure;BME280_temperature;BME280_humidity;BME280_pressure;Samples;Min_cycle;Max_cycle;Signal;HPM_P1;HPM_P2
2022/10/02 00:00:07;;;;;;;9.25;2.63;;;;;;;9.97;100.00;100211.53;5003194;28;20033;-79
2022/10/02 00:02:38;;;;;;;8.57;2.20;;;;;;;10.01;100.00;100218.19;5018817;28;20132;-78
2022/10/02 00:05:10;;;;;;;7.70;1.65;;;;;;;10.03;100.00;100215.34;5026772;28;20033;-78
2022/10/02 00:07:39;;;;;;;7.10;1.80;;;;;;;10.08;100.00;100221.84;5022981;28;20037;-79
2022/10/02 00:10:15;;;;;;;6.68;1.70;;;;;;;10.08;100.00;100221.84;5029458;28;20059;-80
2022/10/02 00:12:43;;;;;;;6.20;1.25;;;;;;;10.08;100.00;100213.81;5007332;28;20033;-80
2022/10/02 00:15:23;;;;;;;7.45;1.90;;;;;;;10.09;100.00;100217.31;5013083;28;20063;-78
2022/10/02 00:17:52;;;;;;;15.38;2.55;;;;;;;10.02;100.00;100216.34;5021093;28;20029;-78
2022/10/02 00:20:22;;;;;;;9.52;1.67;;;;;;;10.14;100.00;100226.50;5029324;28;20033;-78
2022/10/02 00:23:03;;;;;;;5.88;1.70;;;;;;;10.09;100.00;100228.84;5013189;28;20391;-78
2022/10/02 00:25:44;;;;;;;9.45;2.17;;;;;;;10.07;100.00;100235.34;5030623;28;20053;-78
2022/10/02 00:28:28;;;;;;;14.13;2.70;;;;;;;10.11;100.00;100242.00;5010468;28;20026;-80
2022/10/02 00:30:56;;;;;;;10.63;2.67;;;;;;;10.13;100.00;100243.47;5012573;28;20482;-80
2022/10/02 00:33:43;;;;;;;11.32;2.55;;;;;;;10.10;100.00;100246.50;5029590;28;20034;-79
2022/10/02 00:36:25;;;;;;;13.75;2.60;;;;;;;10.11;100.00;100258.84;5030239;28;20026;-78
2022/10/02 00:39:00;;;;;;;16.60;3.03;;;;;;;10.11;100.00;100269.53;4992813;28;20124;-78
2022/10/02 00:42:08;;;;;;;15.82;3.30;;;;;;;10.11;100.00;100266.00;5012760;28;20041;-79
2022/10/02 00:44:51;;;;;;;20.77;4.32;;;;;;;10.11;100.00;100269.53;4992125;28;20799;-79
2022/10/02 00:47:41;;;;;;;21.02;3.53;;;;;;;10.16;100.00;100277.00;5029136;28;20042;-78
2022/10/02 00:50:38;;;;;;;19.70;4.20;;;;;;;10.17;100.00;100275.16;5012857;28;20030;-77
2022/10/02 00:53:09;;;;;;;15.13;2.97;;;;;;;10.16;100.00;100282.34;5016791;28;20057;-77
2022/10/02 00:55:54;;;;;;;11.23;2.88;;;;;;;10.17;100.00;100276.00;5029384;28;20076;-78
2022/10/02 00:58:45;;;;;;;14.93;3.00;;;;;;;10.21;100.00;100276.47;5032998;28;20044;-78
2022/10/02 01:01:17;;;;;;;17.75;3.70;;;;;;;10.22;100.00;100278.16;5033126;28;20045;-78
2022/10/02 01:03:52;;;;;;;14.85;2.78;;;;;;;10.19;100.00;100281.16;5025167;28;20033;-78
2022/10/02 01:06:18;;;;;;;20.92;3.70;;;;;;;10.21;100.00;100284.47;5032423;28;20029;-78
2022/10/02 01:08:43;;;;;;;17.35;4.25;;;;;;;10.15;100.00;100283.34;5034191;28;20036;-78
2022/10/02 01:11:09;;;;;;;15.63;3.53;;;;;;;10.06;100.00;100273.69;5000427;28;20518;-78
2022/10/02 01:13:34;;;;;;;12.90;3.87;;;;;;;10.04;100.00;100268.50;5033063;28;20069;-77
2022/10/02 01:16:00;;;;;;;20.10;4.27;;;;;;;10.01;100.00;100268.03;5015560;28;20037;-78
2022/10/02 01:18:28;;;;;;;14.43;3.65;;;;;;;10.06;100.00;100271.00;5015923;28;20033;-79
2022/10/02 01:21:01;;;;;;;11.73;2.60;;;;;;;10.03;100.00;100282.84;5012739;28;20092;-79
2022/10/02 01:23:33;;;;;;;9.98;2.60;;;;;;;10.09;100.00;100279.53;5014489;28;20041;-78
2022/10/02 01:25:59;;;;;;;8.10;2.80;;;;;;;10.03;100.00;100277.53;4999850;28;20486;-79
2022/10/02 01:28:24;;;;;;;18.15;4.50;;;;;;;10.08;100.00;100275.19;5015584;28;20044;-78
2022/10/02 01:30:54;;;;;;;12.52;2.42;;;;;;;10.10;100.00;100267.84;5007774;28;20613;-77
2022/10/02 01:33:21;;;;;;;8.65;1.60;;;;;;;10.13;100.00;100267.50;5033477;28;20072;-79
2022/10/02 01:35:47;;;;;;;8.75;1.88;;;;;;;10.07;100.00;100246.84;5016024;28;20049;-80
2022/10/02 01:38:17;;;;;;;11.98;1.83;;;;;;;10.01;100.00;100250.19;5016075;28;20414;-78
2022/10/02 01:40:43;;;;;;;13.38;2.20;;;;;;;9.99;100.00;100256.69;5033754;28;20037;-78
2022/10/02 01:43:17;;;;;;;7.43;1.73;;;;;;;9.94;100.00;100258.03;5016136;28;20435;-79
2022/10/02 01:45:49;;;;;;;9.15;2.85;;;;;;;9.99;100.00;100264.69;5009401;28;20144;-79
2022/10/02 01:48:40;;;;;;;9.90;1.80;;;;;;;9.94;100.00;100257.22;5000106;28;20033;-78
2022/10/02 01:51:34;;;;;;;7.13;1.65;;;;;;;9.92;100.00;100251.22;5009357;28;20033;-79
2022/10/02 01:54:32;;;;;;;6.95;1.98;;;;;;;9.90;100.00;100269.22;5017306;28;20076;-80
2022/10/02 01:57:19;;;;;;;9.35;2.08;;;;;;;9.86;100.00;100254.56;4995194;28;20044;-78
2022/10/02 01:59:52;;;;;;;8.73;2.10;;;;;;;9.91;100.00;100268.22;5010784;28;20044;-78
2022/10/02 02:02:20;;;;;;;8.70;1.50;;;;;;;9.84;100.00;100256.56;5000214;28;20053;-78
2022/10/02 02:04:58;;;;;;;3.67;1.33;;;;;;;9.85;100.00;100258.22;5032344;28;20034;-79
2022/10/02 02:07:47;;;;;;;8.18;1.38;;;;;;;9.80;100.00;100249.91;5012935;28;20045;-79
2022/10/02 02:10:31;;;;;;;9.77;2.22;;;;;;;9.73;100.00;100245.25;5027433;28;20861;-79
2022/10/02 02:13:02;;;;;;;8.32;1.73;;;;;;;9.67;100.00;100243.28;5013272;28;20037;-79
2022/10/02 02:15:35;;;;;;;4.43;1.20;;;;;;;9.65;100.00;100247.94;5020107;28;20041;-81
2022/10/02 02:18:42;;;;;;;6.80;1.70;;;;;;;9.63;100.00;100249.94;5015375;28;20042;-79
2022/10/02 02:21:15;;;;;;;12.43;3.05;;;;;;;9.63;100.00;100257.94;5004324;28;20033;-78
2022/10/02 02:23:42;;;;;;;4.95;1.38;;;;;;;9.57;100.00;100253.25;4990575;28;20641;-78
2022/10/02 02:26:11;;;;;;;7.65;1.63;;;;;;;9.61;100.00;100261.78;5013999;28;20132;-78
2022/10/02 02:28:43;;;;;;;9.98;2.90;;;;;;;9.52;100.00;100259.09;5021885;28;20108;-79
2022/10/02 02:31:14;;;;;;;9.45;1.50;;;;;;;9.51;100.00;100267.28;5014273;28;20034;-79
2022/10/02 02:33:46;;;;;;;6.63;1.88;;;;;;;9.58;100.00;100278.09;5004536;28;20033;-78
2022/10/02 02:36:17;;;;;;;6.95;2.20;;;;;;;9.57;100.00;100274.59;5020678;28;20034;-78
2022/10/02 02:38:47;;;;;;;8.13;2.25;;;;;;;9.58;100.00;100278.94;5002595;28;20041;-79
2022/10/02 02:41:20;;;;;;;7.70;1.85;;;;;;;9.52;100.00;100268.94;5002024;28;20475;-78
2022/10/02 02:43:51;;;;;;;6.38;1.45;;;;;;;9.57;100.00;100279.09;5019772;28;20037;-80
2022/10/02 02:49:32;;;;;;;7.13;2.05;;;;;;;9.54;100.00;100282.09;5022598;28;20079;-80
2022/10/02 02:52:02;;;;;;;11.85;2.03;;;;;;;9.54;100.00;100290.91;4983992;28;20037;-80
2022/10/02 02:54:35;;;;;;;9.10;2.05;;;;;;;9.53;100.00;100297.25;5022979;28;20029;-80
2022/10/02 02:57:04;;;;;;;8.55;1.88;;;;;;;9.58;100.00;100292.25;5016081;28;20095;-79
2022/10/02 02:59:32;;;;;;;11.45;2.05;;;;;;;9.51;100.00;100297.41;5017949;28;20614;-81
2022/10/02 03:01:58;;;;;;;10.93;3.05;;;;;;;9.49;100.00;100295.91;5000110;28;20386;-80
2022/10/02 03:04:23;;;;;;;5.43;1.80;;;;;;;9.51;100.00;100299.25;5019390;28;20044;-79
2022/10/02 03:06:54;;;;;;;5.27;1.57;;;;;;;9.47;100.00;100297.91;4986080;28;20479;-78
2022/10/02 03:09:22;;;;;;;9.93;2.03;;;;;;;9.49;100.00;100302.06;5020520;28;20041;-79
2022/10/02 03:12:06;;;;;;;15.07;2.20;;;;;;;9.56;100.00;100307.56;5001568;28;20227;-80
2022/10/02 03:15:07;;;;;;;7.55;1.58;;;;;;;9.57;100.00;100308.41;5003699;28;20033;-78
2022/10/02 03:18:05;;;;;;;5.53;1.83;;;;;;;9.54;100.00;100322.91;5002163;28;20037;-79
2022/10/02 03:20:41;;;;;;;9.48;2.17;;;;;;;9.57;100.00;100325.22;4979395;28;20446;-80
2022/10/02 03:23:41;;;;;;;5.90;1.70;;;;;;;9.59;100.00;100325.88;5016842;28;20038;-79
2022/10/02 03:26:18;;;;;;;8.98;1.42;;;;;;;9.61;100.00;100321.22;5011564;28;20038;-79
2022/10/02 03:28:53;;;;;;;4.47;2.10;;;;;;;9.58;100.00;100324.25;5007893;28;20045;-79
2022/10/02 03:31:21;;;;;;;8.02;1.98;;;;;;;9.59;100.00;100333.06;5016645;28;20034;-78
2022/10/02 03:33:49;;;;;;;5.63;1.50;;;;;;;9.58;100.00;100326.91;5001544;28;20131;-78
2022/10/02 03:36:19;;;;;;;10.07;1.50;;;;;;;9.63;100.00;100329.06;4999281;28;20022;-78
2022/10/02 03:38:47;;;;;;;6.10;1.67;;;;;;;9.68;100.00;100338.22;4983352;28;20045;-78
2022/10/02 03:41:13;;;;;;;6.70;1.55;;;;;;;9.68;100.00;100332.88;5015912;28;20037;-79
2022/10/02 03:43:38;;;;;;;5.53;1.60;;;;;;;9.71;100.00;100340.53;5001936;28;20489;-79
2022/10/02 03:46:03;;;;;;;8.93;2.33;;;;;;;9.71;100.00;100335.22;4998742;28;20045;-78
2022/10/02 03:48:29;;;;;;;8.27;1.83;;;;;;;9.71;100.00;100337.88;5025769;28;20084;-78
2022/10/02 03:50:54;;;;;;;14.73;2.90;;;;;;;9.67;100.00;100339.22;5002589;28;20033;-79
2022/10/02 03:53:23;;;;;;;13.83;1.90;;;;;;;9.72;100.00;100336.06;5019783;28;20042;-78
2022/10/02 03:56:17;;;;;;;9.02;1.58;;;;;;;9.72;100.00;100326.22;5018245;28;20040;-78
2022/10/02 03:58:48;;;;;;;9.68;2.10;;;;;;;9.73;100.00;100335.88;5019399;28;20037;-77
2022/10/02 04:01:25;;;;;;;4.68;1.50;;;;;;;9.80;100.00;100335.22;5004937;28;20388;-79
2022/10/02 04:04:16;;;;;;;12.93;2.10;;;;;;;9.72;100.00;100328.91;5009325;28;20090;-78
2022/10/02 04:06:46;;;;;;;8.63;2.67;;;;;;;9.81;100.00;100343.06;5007640;28;20029;-79
2022/10/02 04:09:43;;;;;;;9.18;2.00;;;;;;;9.81;100.00;100342.22;5017232;28;20029;-78
2022/10/02 04:12:15;;;;;;;4.82;1.90;;;;;;;9.73;100.00;100354.53;5017062;28;20059;-80
2022/10/02 04:14:51;;;;;;;10.50;2.60;;;;;;;9.73;100.00;100356.38;5006224;28;20040;-79
2022/10/02 04:17:29;;;;;;;11.75;3.67;;;;;;;9.80;100.00;100368.03;4983633;28;20053;-79
2022/10/02 04:20:15;;;;;;;13.10;5.18;;;;;;;9.82;100.00;100360.72;4999021;28;20037;-79
2022/10/02 04:23:26;;;;;;;12.63;2.80;;;;;;;9.87;100.00;100366.38;5005501;28;20037;-79
2022/10/02 04:25:59;;;;;;;10.45;3.55;;;;;;;9.88;100.00;100372.53;4965292;28;20097;-79
2022/10/02 04:28:37;;;;;;;11.60;3.42;;;;;;;9.92;100.00;100382.69;4965454;28;20035;-80
2022/10/02 04:31:09;;;;;;;7.05;2.60;;;;;;;9.90;100.00;100373.22;4994995;28;20571;-78
2022/10/02 04:33:34;;;;;;;10.18;3.70;;;;;;;9.94;100.00;100382.53;5019348;28;20033;-78
2022/10/02 04:36:16;;;;;;;18.53;3.40;;;;;;;10.04;100.00;100411.72;4999330;28;20029;-78
2022/10/02 04:39:01;;;;;;;8.90;2.60;;;;;;;10.10;100.00;100419.06;5019330;28;20032;-78
2022/10/02 04:41:29;;;;;;;10.30;2.38;;;;;;;10.11;100.00;100415.38;5020881;28;20454;-79
2022/10/02 04:44:06;;;;;;;7.82;2.40;;;;;;;10.13;100.00;100392.84;5005651;28;20116;-77
2022/10/02 04:47:05;;;;;;;10.93;2.28;;;;;;;10.03;100.00;100375.38;5002549;28;20070;-78
2022/10/02 04:49:44;;;;;;;12.18;2.40;;;;;;;10.03;100.00;100373.53;5002719;28;20519;-79
2022/10/02 04:52:22;;;;;;;16.45;2.08;;;;;;;9.88;100.00;100352.06;5017782;28;20445;-79
2022/10/02 04:55:07;;;;;;;10.07;2.10;;;;;;;9.86;100.00;100342.56;4987147;28;20192;-76
2022/10/02 04:57:32;;;;;;;7.32;2.70;;;;;;;9.85;100.00;100327.56;5005984;28;20033;-77
2022/10/02 05:00:03;;;;;;;8.50;2.03;;;;;;;9.81;100.00;100366.22;5022047;28;20539;-77
2022/10/02 05:02:57;;;;;;;6.55;1.80;;;;;;;9.71;100.00;100369.88;5009003;28;20041;-77
2022/10/02 05:06:03;;;;;;;7.57;1.90;;;;;;;9.72;100.00;100376.06;5012387;28;20040;-76
2022/10/02 05:08:31;;;;;;;6.93;2.20;;;;;;;9.77;100.00;100378.22;5011470;28;20148;-77
2022/10/02 05:11:30;;;;;;;7.53;2.55;;;;;;;9.70;100.00;100378.06;5028584;28;20041;-77
2022/10/02 05:14:33;;;;;;;7.15;2.10;;;;;;;9.69;100.00;100377.22;5003109;28;20233;-76
2022/10/02 05:17:25;;;;;;;10.13;3.00;;;;;;;9.72;100.00;100384.06;5023488;28;20034;-77
2022/10/02 05:20:04;;;;;;;9.30;2.60;;;;;;;9.66;100.00;100387.38;5005475;28;20401;-77
2022/10/02 05:23:13;;;;;;;12.73;2.90;;;;;;;9.68;100.00;100380.88;4994598;28;20029;-77
2022/10/02 05:26:22;;;;;;;13.30;3.53;;;;;;;9.70;100.00;100386.88;5010515;28;20033;-76
2022/10/02 05:28:59;;;;;;;16.30;3.80;;;;;;;9.73;100.00;100391.88;5000824;28;20486;-77
2022/10/02 05:31:42;;;;;;;10.82;3.00;;;;;;;9.68;100.00;100390.72;5027224;28;20033;-77
2022/10/02 05:34:16;;;;;;;10.52;2.65;;;;;;;9.66;100.00;100396.19;5028966;28;20025;-77
2022/10/02 05:36:51;;;;;;;11.45;2.90;;;;;;;9.63;100.00;100388.53;5010645;28;20036;-76
2022/10/02 05:39:25;;;;;;;11.38;2.42;;;;;;;9.68;100.00;100401.38;5027968;28;20037;-77
2022/10/02 05:42:04;;;;;;;7.38;2.40;;;;;;;9.65;100.00;100399.03;5009846;28;20036;-77
2022/10/02 05:44:49;;;;;;;9.48;2.30;;;;;;;9.63;100.00;100391.19;5027415;28;20068;-77
2022/10/02 05:47:27;;;;;;;10.15;2.88;;;;;;;9.71;100.00;100406.38;5009806;28;20116;-77
2022/10/02 05:50:14;;;;;;;6.93;2.20;;;;;;;9.63;100.00;100401.03;5010713;28;20065;-78
2022/10/02 05:52:50;;;;;;;9.32;2.75;;;;;;;9.71;100.00;100407.19;5010200;28;20052;-77
2022/10/02 05:55:24;;;;;;;8.80;2.55;;;;;;;9.78;100.00;100410.03;5028057;28;20041;-78
2022/10/02 05:58:00;;;;;;;10.43;2.63;;;;;;;9.85;100.00;100412.88;5010399;28;20068;-77
2022/10/02 06:00:44;;;;;;;7.78;2.22;;;;;;;9.82;100.00;100418.53;5009785;28;20033;-78
2022/10/02 06:03:09;;;;;;;11.20;2.47;;;;;;;9.86;100.00;100415.38;5025234;28;20103;-78
2022/10/02 06:05:54;;;;;;;12.87;3.13;;;;;;;9.84;100.00;100416.56;5044328;28;20475;-78
2022/10/02 06:08:31;;;;;;;6.85;3.03;;;;;;;9.89;100.00;100422.22;5010776;28;20052;-78
2022/10/02 06:11:02;;;;;;;10.20;3.20;;;;;;;9.87;100.00;100425.03;5010768;28;20060;-78
2022/10/02 06:13:51;;;;;;;9.70;3.83;;;;;;;9.95;100.00;100418.91;5011255;28;20029;-77
2022/10/02 06:16:31;;;;;;;12.57;4.72;;;;;;;10.01;100.00;100434.22;5027594;28;20084;-78
2022/10/02 06:19:04;;;;;;;10.43;3.92;;;;;;;10.08;100.00;100437.06;5011146;28;20041;-78
2022/10/02 06:21:50;;;;;;;6.63;3.70;;;;;;;10.08;100.00;100440.53;5010716;28;20087;-77
2022/10/02 06:24:23;;;;;;;12.80;4.00;;;;;;;10.09;100.00;100444.91;5010614;28;20033;-78
2022/10/02 06:26:57;;;;;;;11.77;4.13;;;;;;;10.14;100.00;100439.91;5009290;28;20026;-78
2022/10/02 06:29:30;;;;;;;6.45;3.00;;;;;;;10.15;100.00;100462.88;4992968;28;20051;-77
2022/10/02 06:32:10;;;;;;;5.13;3.22;;;;;;;10.15;100.00;100457.56;5027031;28;20043;-77
2022/10/02 06:34:35;;;;;;;8.43;2.85;;;;;;;10.13;100.00;100454.22;5032162;28;20034;-76
2022/10/02 06:37:10;;;;;;;10.10;2.63;;;;;;;10.14;100.00;100466.56;5029688;28;20090;-77
2022/10/02 06:40:03;;;;;;;12.98;3.03;;;;;;;10.15;100.00;100457.56;5022383;28;20030;-78
2022/10/02 06:42:35;;;;;;;8.80;2.85;;;;;;;10.17;100.00;100467.25;4976494;28;20133;-78
2022/10/02 06:45:36;;;;;;;7.25;2.88;;;;;;;10.10;100.00;100449.22;5009452;28;20080;-77
2022/10/02 06:48:21;;;;;;;7.85;2.72;;;;;;;10.11;100.00;100452.72;5025994;28;20111;-76
2022/10/02 06:51:17;;;;;;;11.02;3.22;;;;;;;10.15;100.00;100478.06;5010010;28;20399;-78
2022/10/02 06:53:52;;;;;;;11.23;2.70;;;;;;;10.09;100.00;100460.91;5028280;28;20117;-77
2022/10/02 06:56:26;;;;;;;9.13;2.90;;;;;;;10.16;100.00;100469.09;5028152;28;20685;-79
2022/10/02 06:59:30;;;;;;;7.03;2.63;;;;;;;10.17;100.00;100468.06;5028285;28;20037;-77
2022/10/02 07:02:22;;;;;;;5.18;2.50;;;;;;;10.27;100.00;100475.91;4967345;28;20056;-79
2022/10/02 07:05:06;;;;;;;10.93;2.45;;;;;;;10.30;100.00;100472.91;4951243;28;20039;-78
2022/10/02 07:08:02;;;;;;;8.10;2.25;;;;;;;10.34;100.00;100471.59;4993194;28;20060;-79
2022/10/02 07:10:56;;;;;;;7.25;2.72;;;;;;;10.50;100.00;100479.59;5011404;28;20021;-78
2022/10/02 07:13:49;;;;;;;12.77;3.55;;;;;;;10.50;100.00;100476.09;5011898;28;20065;-79
2022/10/02 07:16:28;;;;;;;9.60;3.08;;;;;;;10.49;100.00;100469.09;5004193;28;20076;-78
2022/10/02 07:19:15;;;;;;;13.50;3.75;;;;;;;10.53;100.00;100465.91;5008661;28;20509;-79
2022/10/02 07:22:02;;;;;;;8.77;3.10;;;;;;;10.62;100.00;100469.38;5025550;28;20041;-79
2022/10/02 07:25:04;;;;;;;7.55;3.20;;;;;;;10.64;100.00;100458.56;5011717;28;20029;-78
2022/10/02 07:27:48;;;;;;;9.82;2.85;;;;;;;10.72;100.00;100469.19;5012327;28;20037;-79
2022/10/02 07:30:16;;;;;;;8.55;3.15;;;;;;;10.66;100.00;100464.56;5011977;28;20029;-79
2022/10/02 07:32:54;;;;;;;8.93;3.25;;;;;;;10.66;100.00;100464.56;4996174;28;20030;-78
2022/10/02 07:35:38;;;;;;;7.90;2.42;;;;;;;10.57;100.00;100467.22;5012029;28;20045;-78
2022/10/02 07:38:06;;;;;;;8.68;2.53;;;;;;;10.66;100.00;100470.72;5011748;28;20521;-79
2022/10/02 07:40:58;;;;;;;6.32;2.05;;;;;;;10.57;100.00;100463.72;5028082;28;20538;-78
2022/10/02 07:43:36;;;;;;;8.63;3.25;;;;;;;10.61;100.00;100472.25;5010374;28;20128;-78
2022/10/02 07:46:28;;;;;;;9.05;2.60;;;;;;;10.53;100.00;100475.75;5026599;28;20030;-78
2022/10/02 07:49:26;;;;;;;7.90;2.97;;;;;;;10.56;100.00;100480.75;5014259;28;20084;-79
2022/10/02 07:51:59;;;;;;;9.25;2.65;;;;;;;10.43;100.00;100483.94;5012993;28;20051;-78
2022/10/02 07:54:42;;;;;;;11.35;3.38;;;;;;;10.55;100.00;100487.09;5012791;28;20033;-78
2022/10/02 07:57:37;;;;;;;9.80;2.30;;;;;;;10.52;100.00;100490.94;5025885;28;20045;-78
2022/10/02 08:00:10;;;;;;;6.78;2.17;;;;;;;10.49;100.00;100491.28;5004875;28;20036;-78
2022/10/02 08:02:46;;;;;;;10.82;2.88;;;;;;;10.45;100.00;100491.78;5026235;28;20037;-78
2022/10/02 08:05:21;;;;;;;9.00;2.67;;;;;;;10.49;100.00;100495.78;5005831;28;20037;-78
2022/10/02 08:07:50;;;;;;;4.35;2.17;;;;;;;10.48;100.00;100494.09;5002882;28;20033;-78
2022/10/02 08:10:20;;;;;;;8.88;2.78;;;;;;;10.61;100.00;100509.63;5019566;28;20635;-82
2022/10/02 08:12:54;;;;;;;11.27;2.90;;;;;;;11.25;100.00;100528.34;5020772;28;20040;-78
2022/10/02 08:15:22;;;;;;;11.10;3.20;;;;;;;12.55;100.00;100552.69;5020930;28;20488;-79
2022/10/02 08:17:56;;;;;;;6.00;1.80;;;;;;;12.78;100.00;100525.88;5023439;28;20084;-78
2022/10/02 08:20:35;;;;;;;17.02;2.83;;;;;;;12.42;100.00;100495.22;5021835;28;20072;-79
2022/10/02 08:23:10;;;;;;;12.30;2.00;;;;;;;11.91;100.00;100475.41;5004841;28;20037;-78
2022/10/02 08:25:47;;;;;;;8.67;2.63;;;;;;;11.53;100.00;100478.75;5012135;28;20029;-78
2022/10/02 08:28:12;;;;;;;8.85;1.85;;;;;;;11.34;100.00;100455.97;5023186;28;20372;-78
2022/10/02 08:30:37;;;;;;;9.87;2.10;;;;;;;11.15;100.00;100464.41;5025513;28;20067;-78
2022/10/02 08:33:18;;;;;;;6.47;1.43;;;;;;;11.04;100.00;100489.66;5021449;28;20037;-78
2022/10/02 08:36:23;;;;;;;7.43;1.77;;;;;;;11.15;100.00;100475.94;5021916;28;20029;-79
2022/10/02 08:38:54;;;;;;;3.67;1.20;;;;;;;12.04;100.00;100505.91;5023997;28;20073;-79
2022/10/02 08:41:23;;;;;;;16.52;2.85;;;;;;;13.00;100.00;100508.91;5025784;28;20056;-79
2022/10/02 08:44:13;;;;;;;6.28;1.63;;;;;;;13.71;100.00;100500.34;5024252;28;20037;-79
2022/10/02 08:47:16;;;;;;;7.07;2.08;;;;;;;14.40;100.00;100456.00;5021662;28;20108;-79
2022/10/02 08:50:13;;;;;;;12.02;2.45;;;;;;;14.76;100.00;100419.09;5020230;28;20113;-78
2022/10/02 08:52:52;;;;;;;6.38;1.50;;;;;;;15.89;100.00;100424.06;5019430;28;20044;-79
2022/10/02 08:55:46;;;;;;;9.85;3.35;;;;;;;16.04;100.00;100368.16;5022368;28;20123;-78
2022/10/02 08:58:36;;;;;;;5.78;1.52;;;;;;;16.90;100.00;100306.22;5031850;28;20030;-80
2022/10/02 09:01:39;;;;;;;8.82;1.83;;;;;;;16.73;100.00;100230.38;5029959;28;20029;-79
2022/10/02 09:04:48;;;;;;;4.43;1.35;;;;;;;17.62;100.00;100196.97;5023334;28;20037;-80
2022/10/02 09:07:52;;;;;;;8.57;1.80;;;;;;;16.93;100.00;100034.31;5021876;28;20052;-81
2022/10/02 09:10:48;;;;;;;9.63;2.03;;;;;;;16.97;100.00;100110.16;5018452;28;20108;-81
2022/10/02 09:13:42;;;;;;;7.40;1.83;;;;;;;16.84;100.00;100157.75;5019170;28;20045;-81
2022/10/02 09:16:14;;;;;;;7.82;1.98;;;;;;;15.89;100.00;100149.50;5022631;28;20058;-81
2022/10/02 09:18:58;;;;;;;7.30;2.00;;;;;;;16.86;100.00;100278.88;5004039;28;20039;-80
2022/10/02 09:21:40;;;;;;;12.55;2.20;;;;;;;16.64;100.00;100167.81;5019850;28;20053;-79
2022/10/02 09:24:42;;;;;;;9.73;1.73;;;;;;;17.41;100.00;100227.06;5017650;28;20038;-78
2022/10/02 09:27:41;;;;;;;13.68;2.40;;;;;;;17.83;100.00;100159.84;5007197;28;20121;-79
2022/10/02 09:30:22;;;;;;;8.60;1.70;;;;;;;16.83;100.00;99945.84;5008795;28;20441;-80
2022/10/02 09:33:24;;;;;;;9.48;1.80;;;;;;;17.21;100.00;100224.53;4991812;28;20032;-80
2022/10/02 09:35:50;;;;;;;13.60;2.35;;;;;;;17.33;100.00;100044.69;5012888;28;20119;-79
2022/10/02 09:38:37;;;;;;;5.67;1.77;;;;;;;16.48;100.00;100049.75;5012213;28;20041;-79
2022/10/02 09:41:29;;;;;;;8.95;3.65;;;;;;;17.33;100.00;100162.59;5029609;28;20052;-77
2022/10/02 09:44:18;;;;;;;7.90;1.55;;;;;;;18.42;100.00;100076.38;5045106;28;20037;-79
2022/10/02 09:47:23;;;;;;;9.77;1.70;;;;;;;18.44;100.00;100010.22;5028936;28;20041;-79
2022/10/02 09:50:16;;;;;;;6.43;1.42;;;;;;;19.38;100.00;99904.69;4969544;28;20140;-80
2022/10/02 09:53:00;;;;;;;9.45;1.45;;;;;;;19.00;100.00;99477.13;5011732;28;20125;-79
2022/10/02 09:55:35;;;;;;;8.00;1.58;;;;;;;18.77;100.00;99760.13;5028045;28;20095;-78
2022/10/02 09:58:30;;;;;;;7.18;1.83;;;;;;;16.74;100.00;99648.00;5011901;28;20041;-77
2022/10/02 10:01:29;;;;;;;8.32;1.63;;;;;;;16.51;100.00;100060.13;5024260;28;20082;-78
2022/10/02 10:04:20;;;;;;;6.05;1.52;;;;;;;16.50;100.00;100088.09;5030603;28;20034;-77
2022/10/02 10:06:58;;;;;;;7.82;2.47;;;;;;;17.48;100.00;100104.50;5028533;28;20565;-78
2022/10/02 10:09:51;;;;;;;8.70;1.60;;;;;;;17.07;100.00;99995.38;5029326;28;20101;-77
2022/10/02 10:12:48;;;;;;;11.45;1.55;;;;;;;16.57;100.00;100011.56;5030253;28;20052;-78
2022/10/02 10:15:34;;;;;;;12.15;2.38;;;;;;;17.02;100.00;99987.16;5030137;28;20041;-78
2022/10/02 10:18:35;;;;;;;16.73;1.90;;;;;;;17.70;100.00;100080.63;5045452;28;20108;-77
2022/10/02 10:21:06;;;;;;;7.55;1.58;;;;;;;17.83;100.00;99879.84;5031911;28;20025;-75
2022/10/02 10:23:35;;;;;;;5.80;1.35;;;;;;;17.35;100.00;99947.34;5021824;28;20068;-78
2022/10/02 10:26:33;;;;;;;7.18;1.55;;;;;;;16.90;100.00;99901.81;5027642;28;20017;-77
2022/10/02 10:29:38;;;;;;;6.85;1.73;;;;;;;16.76;100.00;99758.25;5025913;28;20260;-77
2022/10/02 10:32:19;;;;;;;;;;;;;;;17.90;100.00;100239.72;5044407;28;20037;-78
2022/10/02 10:34:54;;;;;;;11.48;1.50;;;;;;;18.08;100.00;99936.41;5027050;28;20328;-77
2022/10/02 10:40:41;;;;;;;7.50;1.70;;;;;;;18.49;100.00;99898.72;5026987;28;20067;-78
2022/10/02 10:43:20;;;;;;;8.23;1.90;;;;;;;18.02;100.00;99872.50;5007613;28;20048;-78
2022/10/02 10:46:11;;;;;;;7.18;1.42;;;;;;;17.65;100.00;99805.16;5028310;28;20129;-78
2022/10/02 10:48:51;;;;;;;10.77;1.90;;;;;;;18.47;100.00;99758.44;5026334;28;20030;-78
2022/10/02 10:51:23;;;;;;;12.52;1.60;;;;;;;18.04;100.00;99551.72;5026719;28;20367;-78
2022/10/02 10:53:57;;;;;;;15.88;2.17;;;;;;;18.55;100.00;99676.97;5023752;28;20065;-76
2022/10/02 10:56:45;;;;;;;7.75;1.52;;;;;;;17.81;100.00;99585.00;5036230;28;20099;-77
2022/10/02 10:59:41;;;;;;;10.15;2.45;;;;;;;17.46;100.00;99814.38;4994279;28;20463;-77
2022/10/02 11:02:31;;;;;;;18.77;2.47;;;;;;;18.05;100.00;100012.50;5009279;28;20505;-77
2022/10/02 11:05:41;;;;;;;5.80;1.50;;;;;;;17.58;100.00;99987.94;5023135;28;20483;-78
2022/10/02 11:08:34;;;;;;;11.15;2.17;;;;;;;17.28;100.00;100401.47;5022996;28;20112;-78
2022/10/02 11:11:35;;;;;;;12.75;1.92;;;;;;;15.86;100.00;100077.25;5027610;28;20546;-78
2022/10/02 11:14:02;;;;;;;15.25;2.00;;;;;;;15.61;100.00;100207.06;4932762;29;20050;-78
2022/10/02 11:17:05;;;;;;;7.38;1.92;;;;;;;14.95;100.00;100491.97;4994951;28;20132;-78
2022/10/02 11:19:42;;;;;;;10.73;1.83;;;;;;;14.86;100.00;100625.69;4999470;28;20068;-79
2022/10/02 11:22:26;;;;;;;18.58;1.70;;;;;;;14.64;100.00;100581.88;4996039;28;20525;-78
2022/10/02 11:25:20;;;;;;;11.90;1.85;;;;;;;14.62;100.00;100608.09;5021453;28;20094;-78
2022/10/02 11:27:57;;;;;;;7.25;2.00;;;;;;;15.90;100.00;100678.81;5019573;28;20483;-77
2022/10/02 11:30:34;;;;;;;7.97;1.75;;;;;;;16.76;100.00;100380.91;5017763;28;20029;-76
2022/10/02 11:33:21;;;;;;;15.57;2.35;;;;;;;17.21;100.00;100168.69;5019532;28;20048;-77
2022/10/02 11:35:59;;;;;;;10.30;1.40;;;;;;;16.40;100.00;99984.34;5016323;28;20037;-77
2022/10/02 11:38:48;;;;;;;10.73;1.40;;;;;;;15.41;100.00;100031.44;5016058;28;20513;-77
2022/10/02 11:41:33;;;;;;;9.05;2.75;;;;;;;15.37;100.00;100262.31;5015995;28;20434;-77
2022/10/02 11:44:27;;;;;;;9.45;1.88;;;;;;;15.09;100.00;100181.03;5014231;28;20463;-77
2022/10/02 11:47:10;;;;;;;9.88;2.15;;;;;;;14.87;100.00;100258.31;5013511;28;20463;-77
2022/10/02 11:49:57;;;;;;;9.27;1.77;;;;;;;15.14;100.00;100432.09;5017170;28;20036;-77
2022/10/02 11:52:50;;;;;;;8.02;2.03;;;;;;;15.51;100.00;100423.75;5018699;28;20094;-76
2022/10/02 11:55:31;;;;;;;6.68;1.63;;;;;;;16.04;100.00;100346.63;5018661;28;20492;-77
2022/10/02 11:58:15;;;;;;;6.80;1.45;;;;;;;16.92;100.00;100287.97;5018051;28;20038;-77
2022/10/02 12:01:04;;;;;;;10.10;2.50;;;;;;;18.19;100.00;100209.50;4986273;28;20040;-77
2022/10/02 12:03:55;;;;;;;12.10;2.45;;;;;;;18.19;100.00;99983.41;5010353;28;20433;-77
2022/10/02 12:06:43;;;;;;;10.05;1.38;;;;;;;17.50;100.00;100098.91;5029491;28;20536;-77
2022/10/02 12:09:20;;;;;;;9.52;1.85;;;;;;;17.59;100.00;99981.50;5022862;28;20041;-77
2022/10/02 12:12:01;;;;;;;9.23;1.55;;;;;;;18.46;100.00;100135.16;5013079;28;20038;-77
2022/10/02 12:14:57;;;;;;;13.90;2.10;;;;;;;18.97;100.00;100063.47;5020943;28;20068;-77
2022/10/02 12:18:01;;;;;;;7.45;1.83;;;;;;;18.90;100.00;99786.91;5018605;28;20049;-76
2022/10/02 12:27:09;;;;;;;5.10;1.50;;;;;;;16.92;100.00;100204.38;5017848;28;20040;-77
2022/10/02 12:29:55;;;;;;;7.68;1.92;;;;;;;16.42;100.00;100494.13;5023660;28;20117;-78
2022/10/02 12:33:06;;;;;;;10.57;1.90;;;;;;;15.48;100.00;100492.25;5024202;28;20056;-79